sensor_id;sensor_type;location;lat;lon;timestamp;pressure;altitude;pressure_sealevel;temperature;humidity
19457;BME280;9867;48.094;11.478;2023-05-24T00:00:47;95371.13;;;13.39;100.00
19457;BME280;9867;48.094;11.478;2023-05-24T00:03:18;95369.81;;;13.23;100.00
19457;BME280;9867;48.094;11.478;2023-05-24T00:05:47;95356.69;;;13.31;100.00
19457;BME280;9867;48.094;11.478;2023-05-24T00:08:15;95355.78;;;13.51;100.00
19457;BME280;9867;48.094;11.478;2023-05-24T00:10:43;95347.16;;;13.39;100.00
19457;BME280;9867;48.094;11.478;2023-05-24T00:13:12;95343.81;;;13.88;100.00
19457;BME280;9867;48.094;11.478;2023-05-24T00:15:41;95344.84;;;13.80;100.00
19457;BME280;9867;48.094;11.478;2023-05-24T00:18:09;95347.59;;;13.60;100.00
19457;BME280;9867;48.094;11.478;2023-05-24T00:20:37;95339.44;;;13.32;100.00
19457;BME280;9867;48.094;11.478;2023-05-24T00:23:05;95344.00;;;13.37;100.00
19457;BME280;9867;48.094;11.478;2023-05-24T00:25:33;95344.81;;;13.62;100.00
19457;BME280;9867;48.094;11.478;2023-05-24T00:28:01;95351.13;;;13.66;100.00
19457;BME280;9867;48.094;11.478;2023-05-24T00:30:30;95342.44;;;13.85;100.00
19457;BME280;9867;48.094;11.478;2023-05-24T00:32:58;95342.59;;;13.65;100.00
19457;BME280;9867;48.094;11.478;2023-05-24T00:35:29;95334.13;;;13.58;100.00
19457;BME280;9867;48.094;11.478;2023-05-24T00:37:56;95344.66;;;13.82;100.00
19457;BME280;9867;48.094;11.478;2023-05-24T00:40:24;95336.16;;;13.75;100.00
19457;BME280;9867;48.094;11.478;2023-05-24T00:42:52;95341.84;;;13.58;100.00
19457;BME280;9867;48.094;11.478;2023-05-24T00:45:20;95337.28;;;13.29;100.00
19457;BME280;9867;48.094;11.478;2023-05-24T00:47:49;95339.78;;;13.42;100.00
19457;BME280;9867;48.094;11.478;2023-05-24T00:50:17;95342.78;;;13.39;100.00
19457;BME280;9867;48.094;11.478;2023-05-24T00:52:46;95321.63;;;13.30;100.00
19457;BME280;9867;48.094;11.478;2023-05-24T00:55:17;95332.75;;;13.56;100.00
19457;BME280;9867;48.094;11.478;2023-05-24T00:57:44;95339.94;;;13.72;100.00
19457;BME280;9867;48.094;11.478;2023-05-24T01:00:14;95342.31;;;13.74;100.00
19457;BME280;9867;48.094;11.478;2023-05-24T01:02:42;95337.53;;;13.77;100.00
19457;BME280;9867;48.094;11.478;2023-05-24T01:05:12;95337.31;;;13.79;100.00
19457;BME280;9867;48.094;11.478;2023-05-24T01:07:51;95341.13;;;13.76;100.00
19457;BME280;9867;48.094;11.478;2023-05-24T01:10:27;95334.13;;;13.83;100.00
19457;BME280;9867;48.094;11.478;2023-05-24T01:13:03;95323.28;;;13.75;100.00
19457;BME280;9867;48.094;11.478;2023-05-24T01:15:40;95325.59;;;13.83;100.00
19457;BME280;9867;48.094;11.478;2023-05-24T01:18:16;95321.59;;;13.62;100.00
19457;BME280;9867;48.094;11.478;2023-05-24T01:20:51;95312.56;;;13.96;100.00
19457;BME280;9867;48.094;11.478;2023-05-24T01:23:37;95330.94;;;14.06;100.00
19457;BME280;9867;48.094;11.478;2023-05-24T01:26:19;95314.69;;;13.81;100.00
19457;BME280;9867;48.094;11.478;2023-05-24T01:28:53;95319.69;;;14.00;100.00
19457;BME280;9867;48.094;11.478;2023-05-24T01:31:22;95308.31;;;14.08;100.00
19457;BME280;9867;48.094;11.478;2023-05-24T01:33:50;95318.25;;;14.05;100.00
19457;BME280;9867;48.094;11.478;2023-05-24T01:36:18;95313.66;;;14.07;100.00
19457;BME280;9867;48.094;11.478;2023-05-24T01:38:47;95313.81;;;13.93;100.00
19457;BME280;9867;48.094;11.478;2023-05-24T01:41:26;95312.53;;;14.21;100.00
19457;BME280;9867;48.094;11.478;2023-05-24T01:44:03;95312.69;;;14.26;100.00
19457;BME280;9867;48.094;11.478;2023-05-24T01:46:35;95322.50;;;14.36;100.00
19457;BME280;9867;48.094;11.478;2023-05-24T01:49:21;95316.16;;;14.56;100.00
19457;BME280;9867;48.094;11.478;2023-05-24T01:51:53;95322.69;;;14.41;100.00
19457;BME280;9867;48.094;11.478;2023-05-24T01:54:27;95321.00;;;14.64;100.00
19457;BME280;9867;48.094;11.478;2023-05-24T01:57:04;95331.41;;;14.76;100.00
19457;BME280;9867;48.094;11.478;2023-05-24T01:59:38;95326.63;;;14.61;100.00
19457;BME280;9867;48.094;11.478;2023-05-24T02:02:09;95332.22;;;14.58;100.00
19457;BME280;9867;48.094;11.478;2023-05-24T02:04:39;95318.44;;;14.64;100.00
19457;BME280;9867;48.094;11.478;2023-05-24T02:07:07;95317.16;;;14.55;100.00
19457;BME280;9867;48.094;11.478;2023-05-24T02:09:36;95324.03;;;14.80;100.00
19457;BME280;9867;48.094;11.478;2023-05-24T02:12:06;95312.69;;;14.81;100.00
19457;BME280;9867;48.094;11.478;2023-05-24T02:14:35;95320.72;;;14.73;100.00
19457;BME280;9867;48.094;11.478;2023-05-24T02:17:04;95315.91;;;14.76;100.00
19457;BME280;9867;48.094;11.478;2023-05-24T02:19:34;95317.56;;;14.71;100.00
19457;BME280;9867;48.094;11.478;2023-05-24T02:22:04;95323.09;;;14.74;100.00
19457;BME280;9867;48.094;11.478;2023-05-24T02:24:32;95325.69;;;14.38;100.00
19457;BME280;9867;48.094;11.478;2023-05-24T02:27:02;95334.25;;;14.13;100.00
19457;BME280;9867;48.094;11.478;2023-05-24T02:29:30;95320.59;;;13.88;100.00
19457;BME280;9867;48.094;11.478;2023-05-24T02:31:59;95323.19;;;13.88;100.00
19457;BME280;9867;48.094;11.478;2023-05-24T02:34:27;95326.94;;;14.10;100.00
19457;BME280;9867;48.094;11.478;2023-05-24T02:36:55;95322.19;;;13.89;100.00
19457;BME280;9867;48.094;11.478;2023-05-24T02:39:24;95321.69;;;13.74;100.00
19457;BME280;9867;48.094;11.478;2023-05-24T02:41:52;95322.25;;;14.00;100.00
19457;BME280;9867;48.094;11.478;2023-05-24T02:44:20;95323.81;;;13.83;100.00
19457;BME280;9867;48.094;11.478;2023-05-24T02:46:47;95313.88;;;14.05;100.00
19457;BME280;9867;48.094;11.478;2023-05-24T02:49:17;95312.31;;;14.04;100.00
19457;BME280;9867;48.094;11.478;2023-05-24T02:51:45;95308.00;;;13.98;100.00
19457;BME280;9867;48.094;11.478;2023-05-24T02:54:13;95313.31;;;14.03;100.00
19457;BME280;9867;48.094;11.478;2023-05-24T02:56:43;95313.16;;;13.98;100.00
19457;BME280;9867;48.094;11.478;2023-05-24T02:59:14;95300.34;;;13.91;100.00
19457;BME280;9867;48.094;11.478;2023-05-24T03:01:42;95307.88;;;13.68;100.00
19457;BME280;9867;48.094;11.478;2023-05-24T03:04:10;95310.34;;;13.25;100.00
19457;BME280;9867;48.094;11.478;2023-05-24T03:06:39;95302.91;;;13.17;100.00
19457;BME280;9867;48.094;11.478;2023-05-24T03:09:07;95320.03;;;12.98;100.00
19457;BME280;9867;48.094;11.478;2023-05-24T03:11:38;95301.25;;;12.84;100.00
19457;BME280;9867;48.094;11.478;2023-05-24T03:14:10;95306.28;;;12.73;100.00
19457;BME280;9867;48.094;11.478;2023-05-24T03:16:40;95306.81;;;12.81;100.00
19457;BME280;9867;48.094;11.478;2023-05-24T03:19:08;95295.97;;;12.73;100.00
19457;BME280;9867;48.094;11.478;2023-05-24T03:21:36;95311.75;;;12.83;100.00
19457;BME280;9867;48.094;11.478;2023-05-24T03:24:06;95300.09;;;12.80;100.00
19457;BME280;9867;48.094;11.478;2023-05-24T03:26:35;95296.00;;;12.66;100.00
19457;BME280;9867;48.094;11.478;2023-05-24T03:29:03;95310.94;;;12.89;100.00
19457;BME280;9867;48.094;11.478;2023-05-24T03:31:35;95310.88;;;13.02;100.00
19457;BME280;9867;48.094;11.478;2023-05-24T03:34:04;95302.03;;;12.91;100.00
19457;BME280;9867;48.094;11.478;2023-05-24T03:36:33;95313.69;;;12.94;100.00
19457;BME280;9867;48.094;11.478;2023-05-24T03:39:02;95314.22;;;12.64;100.00
19457;BME280;9867;48.094;11.478;2023-05-24T03:41:42;95322.75;;;12.58;100.00
19457;BME280;9867;48.094;11.478;2023-05-24T03:44:10;95305.44;;;12.79;100.00
19457;BME280;9867;48.094;11.478;2023-05-24T03:46:38;95325.53;;;13.02;100.00
19457;BME280;9867;48.094;11.478;2023-05-24T03:49:06;95325.97;;;12.98;100.00
19457;BME280;9867;48.094;11.478;2023-05-24T03:51:36;95319.06;;;12.92;100.00
19457;BME280;9867;48.094;11.478;2023-05-24T03:54:04;95320.47;;;12.88;100.00
19457;BME280;9867;48.094;11.478;2023-05-24T03:56:32;95308.38;;;13.27;100.00
19457;BME280;9867;48.094;11.478;2023-05-24T03:59:02;95323.84;;;13.52;100.00
19457;BME280;9867;48.094;11.478;2023-05-24T04:01:31;95326.31;;;13.40;100.00
19457;BME280;9867;48.094;11.478;2023-05-24T04:04:01;95342.19;;;13.37;100.00
19457;BME280;9867;48.094;11.478;2023-05-24T04:06:29;95331.13;;;13.61;100.00
19457;BME280;9867;48.094;11.478;2023-05-24T04:08:58;95329.53;;;13.85;100.00
19457;BME280;9867;48.094;11.478;2023-05-24T04:11:28;95327.41;;;14.00;100.00
19457;BME280;9867;48.094;11.478;2023-05-24T04:13:57;95332.75;;;13.81;100.00
19457;BME280;9867;48.094;11.478;2023-05-24T04:16:27;95329.00;;;13.77;100.00
19457;BME280;9867;48.094;11.478;2023-05-24T04:18:59;95325.91;;;13.93;100.00
19457;BME280;9867;48.094;11.478;2023-05-24T04:21:29;95339.91;;;13.79;100.00
19457;BME280;9867;48.094;11.478;2023-05-24T04:23:58;95331.91;;;13.62;100.00
19457;BME280;9867;48.094;11.478;2023-05-24T04:26:27;95336.44;;;13.42;100.00
19457;BME280;9867;48.094;11.478;2023-05-24T04:28:55;95338.03;;;13.36;100.00
19457;BME280;9867;48.094;11.478;2023-05-24T04:31:23;95344.34;;;13.02;100.00
19457;BME280;9867;48.094;11.478;2023-05-24T04:33:53;95343.84;;;12.87;100.00
19457;BME280;9867;48.094;11.478;2023-05-24T04:36:21;95336.91;;;12.81;100.00
19457;BME280;9867;48.094;11.478;2023-05-24T04:38:50;95342.53;;;12.64;100.00
19457;BME280;9867;48.094;11.478;2023-05-24T04:41:22;95334.84;;;12.58;100.00
19457;BME280;9867;48.094;11.478;2023-05-24T04:43:50;95334.81;;;12.71;100.00
19457;BME280;9867;48.094;11.478;2023-05-24T04:46:18;95334.22;;;13.07;100.00
19457;BME280;9867;48.094;11.478;2023-05-24T04:48:46;95345.84;;;13.23;100.00
19457;BME280;9867;48.094;11.478;2023-05-24T04:51:16;95341.78;;;13.40;100.00
19457;BME280;9867;48.094;11.478;2023-05-24T04:53:44;95350.63;;;13.51;100.00
19457;BME280;9867;48.094;11.478;2023-05-24T04:56:12;95353.00;;;13.52;100.00
19457;BME280;9867;48.094;11.478;2023-05-24T04:58:40;95356.94;;;13.55;100.00
19457;BME280;9867;48.094;11.478;2023-05-24T05:01:08;95351.06;;;13.10;100.00
19457;BME280;9867;48.094;11.478;2023-05-24T05:03:36;95352.38;;;12.81;100.00
19457;BME280;9867;48.094;11.478;2023-05-24T05:06:05;95348.81;;;12.82;100.00
19457;BME280;9867;48.094;11.478;2023-05-24T05:08:34;95351.13;;;12.96;100.00
19457;BME280;9867;48.094;11.478;2023-05-24T05:11:02;95350.50;;;13.39;100.00
19457;BME280;9867;48.094;11.478;2023-05-24T05:13:30;95349.94;;;13.37;100.00
19457;BME280;9867;48.094;11.478;2023-05-24T05:15:58;95339.63;;;13.37;100.00
19457;BME280;9867;48.094;11.478;2023-05-24T05:18:26;95347.84;;;13.14;100.00
19457;BME280;9867;48.094;11.478;2023-05-24T05:20:54;95344.28;;;13.22;100.00
19457;BME280;9867;48.094;11.478;2023-05-24T05:23:22;95341.75;;;13.09;100.00
19457;BME280;9867;48.094;11.478;2023-05-24T05:25:52;95356.06;;;13.68;100.00
19457;BME280;9867;48.094;11.478;2023-05-24T05:28:20;95349.81;;;13.82;100.00
19457;BME280;9867;48.094;11.478;2023-05-24T05:30:48;95354.16;;;13.81;100.00
19457;BME280;9867;48.094;11.478;2023-05-24T05:33:16;95359.75;;;13.47;100.00
19457;BME280;9867;48.094;11.478;2023-05-24T05:35:44;95350.72;;;13.38;100.00
19457;BME280;9867;48.094;11.478;2023-05-24T05:38:12;95352.03;;;13.09;100.00
19457;BME280;9867;48.094;11.478;2023-05-24T05:40:40;95354.69;;;12.95;100.00
19457;BME280;9867;48.094;11.478;2023-05-24T05:43:10;95349.41;;;13.53;100.00
19457;BME280;9867;48.094;11.478;2023-05-24T05:45:38;95342.47;;;13.54;100.00
19457;BME280;9867;48.094;11.478;2023-05-24T05:48:07;95340.81;;;13.91;100.00
19457;BME280;9867;48.094;11.478;2023-05-24T05:50:35;95339.50;;;13.82;100.00
19457;BME280;9867;48.094;11.478;2023-05-24T05:53:03;95345.44;;;14.25;100.00
19457;BME280;9867;48.094;11.478;2023-05-24T05:55:31;95310.91;;;14.45;100.00
19457;BME280;9867;48.094;11.478;2023-05-24T05:58:00;95329.38;;;14.96;100.00
19457;BME280;9867;48.094;11.478;2023-05-24T06:00:29;95340.00;;;14.88;100.00
19457;BME280;9867;48.094;11.478;2023-05-24T06:02:57;95335.06;;;14.68;100.00
19457;BME280;9867;48.094;11.478;2023-05-24T06:05:25;95338.44;;;14.32;100.00
19457;BME280;9867;48.094;11.478;2023-05-24T06:07:56;95341.50;;;14.23;100.00
19457;BME280;9867;48.094;11.478;2023-05-24T06:10:24;95361.50;;;14.27;100.00
19457;BME280;9867;48.094;11.478;2023-05-24T06:12:53;95339.47;;;14.50;100.00
19457;BME280;9867;48.094;11.478;2023-05-24T06:15:21;95336.25;;;15.02;100.00
19457;BME280;9867;48.094;11.478;2023-05-24T06:17:51;95335.66;;;14.71;100.00
19457;BME280;9867;48.094;11.478;2023-05-24T06:20:21;95336.28;;;14.66;100.00
19457;BME280;9867;48.094;11.478;2023-05-24T06:22:49;95341.88;;;14.81;100.00
19457;BME280;9867;48.094;11.478;2023-05-24T06:25:18;95331.78;;;15.10;100.00
19457;BME280;9867;48.094;11.478;2023-05-24T06:27:46;95322.31;;;15.45;100.00
19457;BME280;9867;48.094;11.478;2023-05-24T06:30:17;95303.38;;;15.10;100.00
19457;BME280;9867;48.094;11.478;2023-05-24T06:32:45;95330.22;;;15.50;100.00
19457;BME280;9867;48.094;11.478;2023-05-24T06:35:17;95324.50;;;15.60;100.00
19457;BME280;9867;48.094;11.478;2023-05-24T06:37:45;95333.31;;;15.59;100.00
19457;BME280;9867;48.094;11.478;2023-05-24T06:40:13;95338.72;;;15.92;100.00
19457;BME280;9867;48.094;11.478;2023-05-24T06:42:45;95353.72;;;15.49;100.00
19457;BME280;9867;48.094;11.478;2023-05-24T06:45:21;95339.66;;;14.85;100.00
19457;BME280;9867;48.094;11.478;2023-05-24T06:47:49;95325.19;;;14.95;100.00
19457;BME280;9867;48.094;11.478;2023-05-24T06:50:19;95354.56;;;15.31;100.00
19457;BME280;9867;48.094;11.478;2023-05-24T06:52:47;95349.25;;;15.26;100.00
19457;BME280;9867;48.094;11.478;2023-05-24T06:55:18;95352.25;;;14.93;100.00
19457;BME280;9867;48.094;11.478;2023-05-24T06:57:46;95326.72;;;15.15;100.00
19457;BME280;9867;48.094;11.478;2023-05-24T07:00:17;95343.66;;;15.29;100.00
19457;BME280;9867;48.094;11.478;2023-05-24T07:02:46;95347.25;;;15.28;100.00
19457;BME280;9867;48.094;11.478;2023-05-24T07:05:18;95341.16;;;14.74;100.00
19457;BME280;9867;48.094;11.478;2023-05-24T07:07:47;95349.47;;;14.94;100.00
19457;BME280;9867;48.094;11.478;2023-05-24T07:10:15;95358.59;;;15.57;100.00
19457;BME280;9867;48.094;11.478;2023-05-24T07:12:43;95352.41;;;15.28;100.00
19457;BME280;9867;48.094;11.478;2023-05-24T07:15:11;95353.91;;;15.47;100.00
19457;BME280;9867;48.094;11.478;2023-05-24T07:17:39;95359.16;;;15.59;100.00
19457;BME280;9867;48.094;11.478;2023-05-24T07:20:09;95350.63;;;15.58;100.00
19457;BME280;9867;48.094;11.478;2023-05-24T07:22:38;95344.31;;;15.66;100.00
19457;BME280;9867;48.094;11.478;2023-05-24T07:25:07;95352.47;;;15.51;100.00
19457;BME280;9867;48.094;11.478;2023-05-24T07:27:36;95352.22;;;15.83;100.00
19457;BME280;9867;48.094;11.478;2023-05-24T07:30:05;95353.34;;;15.75;100.00
19457;BME280;9867;48.094;11.478;2023-05-24T07:32:53;95359.28;;;15.64;100.00
19457;BME280;9867;48.094;11.478;2023-05-24T07:35:22;95362.94;;;15.98;100.00
19457;BME280;9867;48.094;11.478;2023-05-24T07:37:51;95359.97;;;15.71;100.00
19457;BME280;9867;48.094;11.478;2023-05-24T07:40:19;95358.03;;;15.66;100.00
19457;BME280;9867;48.094;11.478;2023-05-24T07:42:49;95359.66;;;16.02;100.00
19457;BME280;9867;48.094;11.478;2023-05-24T07:45:17;95371.00;;;15.48;100.00
19457;BME280;9867;48.094;11.478;2023-05-24T07:47:45;95373.03;;;15.76;100.00
19457;BME280;9867;48.094;11.478;2023-05-24T07:50:12;95362.69;;;15.46;100.00
19457;BME280;9867;48.094;11.478;2023-05-24T07:52:40;95363.91;;;15.32;100.00
19457;BME280;9867;48.094;11.478;2023-05-24T07:55:10;95365.34;;;15.69;100.00
19457;BME280;9867;48.094;11.478;2023-05-24T07:57:38;95361.03;;;16.28;100.00
19457;BME280;9867;48.094;11.478;2023-05-24T08:00:07;95368.00;;;16.28;100.00
19457;BME280;9867;48.094;11.478;2023-05-24T08:02:40;95366.75;;;16.07;100.00
19457;BME280;9867;48.094;11.478;2023-05-24T08:05:11;95361.31;;;15.85;100.00
19457;BME280;9867;48.094;11.478;2023-05-24T08:07:39;95363.16;;;15.55;100.00
19457;BME280;9867;48.094;11.478;2023-05-24T08:10:10;95358.22;;;15.53;100.00
19457;BME280;9867;48.094;11.478;2023-05-24T08:12:39;95364.28;;;15.47;100.00
19457;BME280;9867;48.094;11.478;2023-05-24T08:15:08;95369.31;;;15.84;100.00
19457;BME280;9867;48.094;11.478;2023-05-24T08:17:37;95374.38;;;15.90;100.00
19457;BME280;9867;48.094;11.478;2023-05-24T08:20:05;95378.09;;;15.83;100.00
19457;BME280;9867;48.094;11.478;2023-05-24T08:22:35;95376.97;;;15.90;100.00
19457;BME280;9867;48.094;11.478;2023-05-24T08:25:04;95391.03;;;15.94;100.00
19457;BME280;9867;48.094;11.478;2023-05-24T08:27:34;95397.19;;;15.58;100.00
19457;BME280;9867;48.094;11.478;2023-05-24T08:30:02;95379.88;;;15.41;100.00
19457;BME280;9867;48.094;11.478;2023-05-24T08:32:31;95376.38;;;15.65;100.00
19457;BME280;9867;48.094;11.478;2023-05-24T08:34:59;95372.28;;;15.99;100.00
19457;BME280;9867;48.094;11.478;2023-05-24T08:37:45;95380.34;;;15.91;100.00
19457;BME280;9867;48.094;11.478;2023-05-24T08:40:14;95377.41;;;15.76;100.00
19457;BME280;9867;48.094;11.478;2023-05-24T08:42:43;95376.50;;;15.40;100.00
19457;BME280;9867;48.094;11.478;2023-05-24T08:45:13;95382.94;;;15.19;100.00
19457;BME280;9867;48.094;11.478;2023-05-24T08:47:42;95378.50;;;15.56;100.00
19457;BME280;9867;48.094;11.478;2023-05-24T08:50:12;95380.69;;;14.93;100.00
19457;BME280;9867;48.094;11.478;2023-05-24T08:52:41;95392.19;;;14.79;100.00
19457;BME280;9867;48.094;11.478;2023-05-24T08:55:09;95399.53;;;14.39;100.00
19457;BME280;9867;48.094;11.478;2023-05-24T08:57:38;95391.97;;;14.80;100.00
19457;BME280;9867;48.094;11.478;2023-05-24T09:00:10;95393.97;;;14.60;100.00
19457;BME280;9867;48.094;11.478;2023-05-24T09:02:41;95397.25;;;14.67;100.00
19457;BME280;9867;48.094;11.478;2023-05-24T09:05:10;95392.53;;;14.82;100.00
19457;BME280;9867;48.094;11.478;2023-05-24T09:07:41;95388.31;;;14.88;100.00
19457;BME280;9867;48.094;11.478;2023-05-24T09:10:10;95388.94;;;15.01;100.00
19457;BME280;9867;48.094;11.478;2023-05-24T09:12:39;95393.91;;;15.33;100.00
19457;BME280;9867;48.094;11.478;2023-05-24T09:15:12;95398.91;;;15.76;100.00
19457;BME280;9867;48.094;11.478;2023-05-24T09:17:40;95396.41;;;15.69;100.00
19457;BME280;9867;48.094;11.478;2023-05-24T09:20:08;95402.69;;;15.44;100.00
19457;BME280;9867;48.094;11.478;2023-05-24T09:22:40;95405.69;;;15.29;100.00
19457;BME280;9867;48.094;11.478;2023-05-24T09:25:11;95403.97;;;15.53;100.00
19457;BME280;9867;48.094;11.478;2023-05-24T09:27:40;95390.03;;;14.76;100.00
19457;BME280;9867;48.094;11.478;2023-05-24T09:30:09;95402.84;;;14.46;100.00
19457;BME280;9867;48.094;11.478;2023-05-24T09:32:42;95413.91;;;14.71;100.00
19457;BME280;9867;48.094;11.478;2023-05-24T09:35:20;95415.13;;;14.50;100.00
19457;BME280;9867;48.094;11.478;2023-05-24T09:37:48;95409.22;;;14.43;100.00
19457;BME280;9867;48.094;11.478;2023-05-24T09:40:17;95408.38;;;14.49;100.00
19457;BME280;9867;48.094;11.478;2023-05-24T09:42:46;95400.63;;;14.67;100.00
19457;BME280;9867;48.094;11.478;2023-05-24T09:45:17;95402.16;;;14.75;100.00
19457;BME280;9867;48.094;11.478;2023-05-24T09:47:46;95408.69;;;14.59;100.00
19457;BME280;9867;48.094;11.478;2023-05-24T09:50:15;95407.00;;;14.47;100.00
19457;BME280;9867;48.094;11.478;2023-05-24T09:52:44;95414.47;;;14.55;100.00
19457;BME280;9867;48.094;11.478;2023-05-24T09:55:12;95416.53;;;14.46;100.00
19457;BME280;9867;48.094;11.478;2023-05-24T09:57:42;95408.00;;;14.21;100.00
19457;BME280;9867;48.094;11.478;2023-05-24T10:00:11;95415.31;;;13.99;100.00
19457;BME280;9867;48.094;11.478;2023-05-24T10:02:43;95422.69;;;13.95;100.00
19457;BME280;9867;48.094;11.478;2023-05-24T10:05:20;95410.41;;;13.35;100.00
19457;BME280;9867;48.094;11.478;2023-05-24T10:07:48;95414.53;;;12.97;100.00
19457;BME280;9867;48.094;11.478;2023-05-24T10:10:17;95417.63;;;13.06;100.00
19457;BME280;9867;48.094;11.478;2023-05-24T10:12:46;95420.97;;;13.13;100.00
19457;BME280;9867;48.094;11.478;2023-05-24T10:15:14;95424.84;;;12.91;100.00
19457;BME280;9867;48.094;11.478;2023-05-24T10:17:42;95421.06;;;12.87;100.00
19457;BME280;9867;48.094;11.478;2023-05-24T10:20:10;95421.50;;;12.77;100.00
19457;BME280;9867;48.094;11.478;2023-05-24T10:22:43;95418.19;;;12.57;100.00
19457;BME280;9867;48.094;11.478;2023-05-24T10:25:15;95413.47;;;12.47;100.00
19457;BME280;9867;48.094;11.478;2023-05-24T10:27:44;95413.81;;;12.57;100.00
19457;BME280;9867;48.094;11.478;2023-05-24T10:30:16;95414.41;;;12.59;100.00
19457;BME280;9867;48.094;11.478;2023-05-24T10:32:47;95419.34;;;12.74;100.00
19457;BME280;9867;48.094;11.478;2023-05-24T10:35:17;95416.91;;;12.86;100.00
19457;BME280;9867;48.094;11.478;2023-05-24T10:37:48;95415.81;;;13.13;100.00
19457;BME280;9867;48.094;11.478;2023-05-24T10:40:17;95420.91;;;13.33;100.00
19457;BME280;9867;48.094;11.478;2023-05-24T10:42:46;95424.97;;;13.54;100.00
19457;BME280;9867;48.094;11.478;2023-05-24T10:45:30;95433.63;;;13.66;100.00
19457;BME280;9867;48.094;11.478;2023-05-24T10:48:07;95422.06;;;13.75;100.00
19457;BME280;9867;48.094;11.478;2023-05-24T10:50:36;95420.81;;;14.09;100.00
19457;BME280;9867;48.094;11.478;2023-05-24T10:53:12;95424.97;;;14.10;100.00
19457;BME280;9867;48.094;11.478;2023-05-24T10:55:54;95430.34;;;14.09;100.00
19457;BME280;9867;48.094;11.478;2023-05-24T10:58:27;95421.59;;;14.10;100.00
19457;BME280;9867;48.094;11.478;2023-05-24T11:00:56;95415.53;;;13.97;100.00
19457;BME280;9867;48.094;11.478;2023-05-24T11:03:24;95416.06;;;14.31;100.00
19457;BME280;9867;48.094;11.478;2023-05-24T11:05:53;95424.59;;;14.75;100.00
19457;BME280;9867;48.094;11.478;2023-05-24T11:08:25;95424.25;;;14.71;100.00
19457;BME280;9867;48.094;11.478;2023-05-24T11:11:06;95425.59;;;14.55;100.00
19457;BME280;9867;48.094;11.478;2023-05-24T11:13:55;95430.44;;;14.20;100.00
19457;BME280;9867;48.094;11.478;2023-05-24T11:16:33;95430.50;;;13.89;100.00
19457;BME280;9867;48.094;11.478;2023-05-24T11:19:10;95418.66;;;14.06;100.00
19457;BME280;9867;48.094;11.478;2023-05-24T11:21:39;95428.56;;;14.09;100.00
19457;BME280;9867;48.094;11.478;2023-05-24T11:24:09;95423.03;;;14.06;100.00
19457;BME280;9867;48.094;11.478;2023-05-24T11:26:37;95419.81;;;14.10;100.00
19457;BME280;9867;48.094;11.478;2023-05-24T11:29:06;95423.28;;;14.22;100.00
19457;BME280;9867;48.094;11.478;2023-05-24T11:31:34;95419.22;;;14.33;100.00
19457;BME280;9867;48.094;11.478;2023-05-24T11:34:10;95416.47;;;14.53;100.00
19457;BME280;9867;48.094;11.478;2023-05-24T11:36:38;95423.81;;;14.56;100.00
19457;BME280;9867;48.094;11.478;2023-05-24T11:39:06;95427.38;;;14.30;100.00
19457;BME280;9867;48.094;11.478;2023-05-24T11:41:37;95429.91;;;14.37;100.00
19457;BME280;9867;48.094;11.478;2023-05-24T11:44:06;95421.53;;;14.41;100.00
19457;BME280;9867;48.094;11.478;2023-05-24T11:46:35;95414.66;;;14.35;100.00
19457;BME280;9867;48.094;11.478;2023-05-24T11:49:04;95418.22;;;14.77;100.00
19457;BME280;9867;48.094;11.478;2023-05-24T11:51:33;95423.81;;;14.74;100.00
19457;BME280;9867;48.094;11.478;2023-05-24T11:54:03;95426.59;;;14.73;100.00
19457;BME280;9867;48.094;11.478;2023-05-24T11:56:31;95419.38;;;14.63;100.00
19457;BME280;9867;48.094;11.478;2023-05-24T11:59:08;95409.69;;;14.77;100.00
19457;BME280;9867;48.094;11.478;2023-05-24T12:01:36;95407.03;;;14.83;100.00
19457;BME280;9867;48.094;11.478;2023-05-24T12:04:05;95429.97;;;14.30;100.00
19457;BME280;9867;48.094;11.478;2023-05-24T12:06:36;95426.84;;;14.21;100.00
19457;BME280;9867;48.094;11.478;2023-05-24T12:09:05;95427.44;;;13.98;100.00
19457;BME280;9867;48.094;11.478;2023-05-24T12:11:39;95427.53;;;13.85;100.00
19457;BME280;9867;48.094;11.478;2023-05-24T12:14:12;95430.59;;;14.00;100.00
19457;BME280;9867;48.094;11.478;2023-05-24T12:16:41;95433.38;;;14.24;100.00
19457;BME280;9867;48.094;11.478;2023-05-24T12:19:12;95433.28;;;14.37;100.00
19457;BME280;9867;48.094;11.478;2023-05-24T12:21:58;95424.97;;;14.35;100.00
19457;BME280;9867;48.094;11.478;2023-05-24T12:24:27;95431.72;;;14.36;100.00
19457;BME280;9867;48.094;11.478;2023-05-24T12:26:58;95427.97;;;14.32;100.00
19457;BME280;9867;48.094;11.478;2023-05-24T12:29:33;95434.09;;;14.13;100.00
19457;BME280;9867;48.094;11.478;2023-05-24T12:32:03;95438.50;;;14.30;100.00
19457;BME280;9867;48.094;11.478;2023-05-24T12:34:31;95436.44;;;14.39;100.00
19457;BME280;9867;48.094;11.478;2023-05-24T12:36:59;95434.56;;;14.53;100.00
19457;BME280;9867;48.094;11.478;2023-05-24T12:39:29;95436.91;;;14.29;100.00
19457;BME280;9867;48.094;11.478;2023-05-24T12:42:00;95429.50;;;14.15;100.00
19457;BME280;9867;48.094;11.478;2023-05-24T12:44:29;95428.91;;;13.88;100.00
19457;BME280;9867;48.094;11.478;2023-05-24T12:47:01;95421.97;;;14.13;100.00
19457;BME280;9867;48.094;11.478;2023-05-24T12:49:30;95429.97;;;14.05;100.00
19457;BME280;9867;48.094;11.478;2023-05-24T12:51:58;95432.34;;;14.07;100.00
19457;BME280;9867;48.094;11.478;2023-05-24T12:54:27;95427.03;;;14.26;100.00
19457;BME280;9867;48.094;11.478;2023-05-24T12:56:56;95420.81;;;14.59;100.00
19457;BME280;9867;48.094;11.478;2023-05-24T12:59:27;95407.03;;;15.01;100.00
19457;BME280;9867;48.094;11.478;2023-05-24T13:01:55;95418.25;;;15.25;100.00
19457;BME280;9867;48.094;11.478;2023-05-24T13:04:24;95407.66;;;15.75;100.00